KBOK

Details ICAO KBOK
Name Brookings State
Region United States
Timezone America/Los_Angeles (UTC-7.0)
Plans Departing 2
Arriving 15
Stats Elevation 459 ft / 140 m (AMSL)
Location 42.073864° -124.289776°
Runways 1
Magnetic Variation 14.686° E
Sunrise 2018-05-20 12:53:10 UTC / 2018-05-20 05:53:10 Local
Sunset 2018-05-21 03:37:05 UTC / 2018-05-20 20:37:05 Local
Advertisement - Login to hide

Runways

ID Width Length Bearing (true) Bearing (mag) Surface Threshold Offset Overrun Length
12 59 ft / 18 m 2,903 ft / 885 m 143.45° 128.76° Asphalt 0 ft / 0 m 230 ft / 70 m
30 59 ft / 18 m 2,903 ft / 885 m 323.45° 308.76° Asphalt 0 ft / 0 m 230 ft / 70 m

Map

Weather


0- 5 10 15 20 25 30 35+ Temperature / ° C

Clouds and Precipitation
Forecast for 2018-05-20 18:00 UTC. Updated an hour ago

Ground ~20,000 ft ~40,000 ft Winds

METAR

KBOK 201621Z AUTO 00000KT 10SM OVC014 12/09 A3006 RMK AO2

TAF

Not found

Frequencies

Recorded 132.02 MHz WX ASOS
Unicom 122.80 MHz CTAF/UNICOM
Recorded 119.92 MHz WX ASOS @ CEC
Warning: Do not use this data for real-world aviation or navigation. No guarantee of current accuracy is given.